Time;durP1;ratioP1;P1;durP2;ratioP2;P2;SDS_P1;SDS_P2;PMS_P1;PMS_P2;Temp;Humidity;BMP_temperature;BMP_pressure;BME280_temperature;BME280_humidity;BME280_pressure;Samples;Min_cycle;Max_cycle;Signal;HPM_P1;HPM_P2
2022/02/02 00:04:32;;;;;;;38.40;7.60;;;;;;;7.48;91.90;101564.03;5053201;28;20041;-35
2022/02/02 00:09:23;;;;;;;26.17;6.35;;;;;;;7.58;91.63;101598.69;5052955;28;20041;-35
2022/02/02 00:19:26;;;;;;;28.83;7.17;;;;;;;7.64;90.23;101575.56;5053338;28;20033;-35
2022/02/02 00:21:58;;;;;;;39.15;8.18;;;;;;;7.63;90.49;101584.66;5053463;28;20040;-35
2022/02/02 00:27:10;;;;;;;28.13;6.43;;;;;;;7.62;91.21;101586.53;5052457;28;20388;-35
2022/02/02 00:29:41;;;;;;;34.58;6.07;;;;;;;7.62;90.96;101583.00;5052906;28;20021;-35
2022/02/02 00:32:22;;;;;;;26.00;7.10;;;;;;;7.60;91.15;101583.16;5052583;28;20057;-35
2022/02/02 00:34:48;;;;;;;34.88;7.68;;;;;;;7.60;90.67;101585.03;5053028;28;20033;-35
2022/02/02 00:37:15;;;;;;;32.83;6.38;;;;;;;7.62;90.89;101591.91;5052926;28;20510;-35
2022/02/02 00:39:40;;;;;;;31.83;7.22;;;;;;;7.60;90.87;101595.81;5052736;28;20112;-35
2022/02/02 00:42:06;;;;;;;25.90;6.03;;;;;;;7.60;91.30;101607.41;5052487;28;20049;-35
2022/02/02 00:44:33;;;;;;;33.70;6.35;;;;;;;7.60;91.40;101601.19;5052935;28;20259;-35
2022/02/02 00:46:58;;;;;;;28.88;6.00;;;;;;;7.59;91.81;101608.44;5052148;28;20036;-35
2022/02/02 00:49:24;;;;;;;32.70;7.97;;;;;;;7.55;91.20;101592.84;5052691;28;20108;-35
2022/02/02 00:51:53;;;;;;;29.90;7.50;;;;;;;7.61;90.82;101597.47;5052088;28;20028;-35
2022/02/02 00:54:21;;;;;;;28.65;6.43;;;;;;;7.61;90.51;101603.69;5052312;28;20071;-35
2022/02/02 00:56:47;;;;;;;26.10;6.20;;;;;;;7.62;90.25;101599.16;5052166;28;20044;-35
2022/02/02 00:59:13;;;;;;;32.42;6.93;;;;;;;7.54;90.11;101581.25;5052321;28;20025;-35
2022/02/02 01:01:39;;;;;;;33.22;5.85;;;;;;;7.60;89.98;101602.00;5053107;28;20028;-35
2022/02/02 01:04:05;;;;;;;31.10;7.15;;;;;;;7.61;90.10;101598.31;5052681;28;20047;-35
2022/02/02 01:06:34;;;;;;;31.77;6.57;;;;;;;7.61;89.63;101598.31;5055677;28;20033;-35
2022/02/02 01:17:33;;;;;;;33.67;7.53;;;;;;;7.54;89.01;101583.94;5055889;28;20112;-35
2022/02/02 01:20:03;;;;;;;28.17;6.90;;;;;;;7.61;89.47;101616.31;5055416;28;20116;-35
2022/02/02 01:27:57;;;;;;;29.25;6.57;;;;;;;7.53;89.46;101603.81;5055657;28;20106;-35
2022/02/02 01:30:23;;;;;;;29.30;6.20;;;;;;;7.55;89.12;101606.31;5056163;28;20449;-35
2022/02/02 01:32:50;;;;;;;27.05;7.15;;;;;;;7.41;89.94;101598.09;5055145;28;20025;-35
2022/02/02 01:35:17;;;;;;;31.08;6.80;;;;;;;7.46;89.18;101598.34;5054526;28;20075;-35
2022/02/02 01:37:44;;;;;;;39.70;7.78;;;;;;;7.38;89.54;101593.13;5055624;28;20081;-35
2022/02/02 01:43:24;;;;;;;27.63;6.25;;;;;;;7.37;90.17;101610.28;5053130;28;20041;-35
2022/02/02 01:45:52;;;;;;;22.17;5.60;;;;;;;7.34;90.38;101609.84;5052408;28;20401;-35
2022/02/02 01:51:17;;;;;;;25.10;6.05;;;;;;;7.28;90.32;101619.50;5052910;28;20037;-36
2022/02/02 01:53:57;;;;;;;29.33;6.95;;;;;;;7.25;90.91;101622.56;5052701;28;20135;-35
2022/02/02 01:56:23;;;;;;;31.67;7.43;;;;;;;7.25;90.34;101622.56;5052990;28;20582;-35
2022/02/02 02:01:16;;;;;;;32.80;6.70;;;;;;;7.21;90.67;101634.72;5053110;28;20041;-35
2022/02/02 02:03:42;;;;;;;29.47;6.13;;;;;;;7.21;91.01;101650.88;5052924;28;20044;-35
2022/02/02 02:06:08;;;;;;;32.27;7.23;;;;;;;7.18;90.22;101644.03;5052902;28;20071;-35
2022/02/02 02:08:37;;;;;;;30.50;6.47;;;;;;;7.16;90.77;101643.34;5052571;28;20345;-35
2022/02/02 02:11:06;;;;;;;34.22;6.13;;;;;;;7.16;90.73;101659.50;5052468;28;20036;-35
2022/02/02 02:16:20;;;;;;;36.55;7.63;;;;;;;7.18;90.18;101656.63;5052080;28;20112;-35
2022/02/02 02:18:46;;;;;;;27.42;5.93;;;;;;;7.15;90.92;101655.16;5052036;28;20112;-36
2022/02/02 02:21:14;;;;;;;31.35;7.57;;;;;;;7.10;90.49;101633.38;5054920;28;20029;-35
2022/02/02 02:23:40;;;;;;;30.95;7.32;;;;;;;7.07;90.52;101649.03;5054232;28;20033;-36
2022/02/02 02:26:07;;;;;;;31.17;6.88;;;;;;;7.10;90.31;101643.28;5053321;28;20463;-35
2022/02/02 02:28:49;;;;;;;27.58;5.80;;;;;;;7.11;89.66;101650.34;5054682;28;20389;-35
2022/02/02 02:34:24;;;;;;;31.00;6.18;;;;;;;7.04;89.82;101644.88;5054631;28;20424;-35
2022/02/02 02:39:34;;;;;;;30.17;5.95;;;;;;;7.03;89.17;101639.66;5054373;28;20457;-35
2022/02/02 02:56:01;;;;;;;28.60;6.38;;;;;;;7.05;90.27;101657.31;5032034;28;20040;-36
2022/02/02 03:30:55;;;;;;;37.47;8.93;;;;;;;7.11;91.28;101656.53;5053685;28;20087;-35
2022/02/02 03:50:05;;;;;;;36.78;7.80;;;;;;;7.13;91.10;101651.00;5053395;28;20036;-35
2022/02/02 03:58:16;;;;;;;38.78;8.68;;;;;;;7.13;91.51;101681.41;5053324;28;20037;-36
2022/02/02 04:05:53;;;;;;;27.33;6.80;;;;;;;7.08;92.23;101656.09;5052906;28;20045;-36
2022/02/02 04:10:44;;;;;;;33.53;7.17;;;;;;;7.11;91.17;101670.00;5052960;28;20049;-36
2022/02/02 05:11:24;;;;;;;32.20;7.75;;;;;;;7.08;92.44;101721.50;5056012;28;20037;-35
2022/02/02 05:14:49;;;;;;;32.90;6.18;;;;;;;7.02;92.44;101710.63;5055774;28;20082;-35
2022/02/02 05:16:52;;;;;;;28.13;5.63;;;;;;;7.10;92.87;101721.28;5055546;28;20044;-35
2022/02/02 05:51:31;;;;;;;34.00;7.35;;;;;;;6.95;93.29;101757.09;5053987;28;20039;-35
2022/02/02 05:53:56;;;;;;;29.50;7.35;;;;;;;6.78;93.80;101736.75;5055141;28;20082;-35
2022/02/02 05:56:22;;;;;;;35.78;7.72;;;;;;;6.91;93.43;101769.22;5055023;28;20049;-35
2022/02/02 05:58:48;;;;;;;30.73;5.73;;;;;;;6.91;93.52;101769.22;5053781;28;20555;-35
2022/02/02 06:01:14;;;;;;;;;;;;;;;6.96;93.73;101774.88;5055515;28;20028;-35
2022/02/02 06:03:43;;;;;;;28.50;6.78;;;;;;;6.90;93.66;101769.41;5055267;28;20371;-35
2022/02/02 06:06:10;;;;;;;31.98;6.35;;;;;;;6.87;93.82;101783.22;5054975;28;20025;-35
2022/02/02 06:08:35;;;;;;;31.33;6.70;;;;;;;6.86;94.37;101781.56;5054889;28;20029;-35
2022/02/02 06:11:04;;;;;;;28.70;6.50;;;;;;;6.77;93.97;101764.66;5055513;28;20116;-35
2022/02/02 06:13:43;;;;;;;33.25;6.63;;;;;;;6.84;94.06;101786.28;5054560;28;20034;-35
2022/02/02 06:16:08;;;;;;;24.38;6.03;;;;;;;6.84;95.14;101795.19;5055409;28;20389;-35
2022/02/02 06:18:36;;;;;;;31.42;7.25;;;;;;;6.76;94.12;101787.19;5054510;28;20026;-35
2022/02/02 06:21:04;;;;;;;36.00;7.28;;;;;;;6.75;93.91;101793.59;5055223;28;20051;-35
2022/02/02 06:23:33;;;;;;;34.83;6.68;;;;;;;6.83;94.84;101812.34;5055301;28;20407;-35
2022/02/02 06:26:03;;;;;;;23.45;5.57;;;;;;;6.80;95.02;101815.38;5054715;28;20058;-35
2022/02/02 06:28:32;;;;;;;33.30;7.03;;;;;;;6.79;95.51;101819.09;5055072;28;20032;-35
2022/02/02 06:31:01;;;;;;;31.38;7.28;;;;;;;6.78;94.87;101814.72;5055263;28;20024;-35
2022/02/02 06:33:35;;;;;;;29.40;7.25;;;;;;;6.78;94.82;101808.50;5054410;28;20093;-35
2022/02/02 06:36:05;;;;;;;33.47;7.72;;;;;;;6.62;95.11;101788.84;5054722;28;20025;-36
2022/02/02 06:38:32;;;;;;;25.65;5.72;;;;;;;6.70;95.75;101798.69;5054565;28;20483;-36
2022/02/02 06:40:59;;;;;;;28.58;5.88;;;;;;;6.74;95.92;101804.53;5054038;28;20167;-36
2022/02/02 06:43:26;;;;;;;31.42;6.40;;;;;;;6.72;95.19;101816.28;5054230;28;20039;-36
2022/02/02 06:45:52;;;;;;;29.98;7.68;;;;;;;6.62;94.93;101810.34;5054201;28;20145;-36
2022/02/02 06:48:18;;;;;;;33.30;7.00;;;;;;;6.70;95.49;101836.31;5054120;28;20112;-36
2022/02/02 06:50:58;;;;;;;35.10;7.47;;;;;;;6.60;96.10;101814.22;5054246;28;20028;-36
2022/02/02 06:53:33;;;;;;;34.63;6.82;;;;;;;6.69;95.81;101819.34;5054284;28;20454;-36
2022/02/02 06:56:38;;;;;;;31.15;6.85;;;;;;;6.69;96.22;101837.34;5054787;28;20032;-36
2022/02/02 07:05:21;;;;;;;30.10;6.05;;;;;;;6.63;96.26;101843.41;5011956;28;20038;-35
2022/02/02 07:10:54;;;;;;;;;;;;;;;6.62;96.00;101844.44;5012452;28;19932;-35
2022/02/02 07:18:49;;;;;;;32.90;6.10;;;;;;;6.51;97.38;101859.13;5012170;28;20118;-35
2022/02/02 07:27:28;;;;;;;30.33;6.93;;;;;;;6.45;97.10;101866.06;4991986;28;20172;-35
2022/02/02 07:32:24;;;;;;;38.93;7.00;;;;;;;6.42;98.26;101866.41;4991762;28;20072;-36
2022/02/02 07:35:21;;;;;;;33.00;6.47;;;;;;;6.43;98.29;101886.91;4994121;28;20112;-36
2022/02/02 07:38:03;;;;;;;30.67;7.28;;;;;;;6.37;98.34;101884.94;5011148;28;20053;-36
2022/02/02 07:40:30;;;;;;;29.38;6.30;;;;;;;6.42;98.40;101892.44;5011314;28;20125;-36
2022/02/02 07:43:01;;;;;;;39.58;7.78;;;;;;;6.34;98.52;101892.50;5011195;28;20068;-36
2022/02/02 07:45:30;;;;;;;31.10;6.95;;;;;;;6.37;97.96;101892.16;5011338;28;20080;-36
2022/02/02 07:48:01;;;;;;;32.47;7.43;;;;;;;6.43;98.71;101907.56;5011189;28;20034;-36
2022/02/02 07:50:29;;;;;;;26.05;6.22;;;;;;;6.44;98.45;101910.09;5011693;28;20041;-36
2022/02/02 07:52:57;;;;;;;27.13;6.22;;;;;;;6.38;98.54;101899.19;5010946;28;20065;-36
2022/02/02 07:55:25;;;;;;;30.73;6.65;;;;;;;6.45;98.52;101903.69;5011073;28;20109;-36
2022/02/02 07:57:52;;;;;;;40.65;6.75;;;;;;;6.47;98.62;101906.19;5035633;28;20037;-36
2022/02/02 08:00:21;;;;;;;33.03;6.55;;;;;;;6.47;98.62;101916.09;5053278;28;20358;-36
2022/02/02 08:05:17;;;;;;;31.13;5.97;;;;;;;6.45;98.86;101909.06;5053105;28;20041;-36
2022/02/02 08:07:51;;;;;;;34.45;7.55;;;;;;;6.45;97.92;101914.44;5052943;28;20036;-36
2022/02/02 08:10:20;;;;;;;28.52;7.03;;;;;;;6.38;98.18;101910.78;5053800;28;20032;-36
2022/02/02 08:15:12;;;;;;;27.23;6.25;;;;;;;6.45;99.22;101925.19;5054241;28;20157;-36
2022/02/02 08:17:39;;;;;;;31.00;6.47;;;;;;;6.50;98.89;101930.03;5056653;28;20032;-36
2022/02/02 08:20:05;;;;;;;33.40;5.70;;;;;;;6.49;99.18;101922.13;5057719;28;20116;-36
2022/02/02 08:22:31;;;;;;;33.88;7.63;;;;;;;6.56;99.43;101936.53;5056575;28;20389;-34
2022/02/02 08:24:56;;;;;;;25.20;5.83;;;;;;;6.50;99.26;101921.97;5056775;28;20063;-35
2022/02/02 08:27:22;;;;;;;28.67;6.57;;;;;;;6.59;98.41;101944.25;5057651;28;20330;-35
2022/02/02 08:29:47;;;;;;;32.67;7.20;;;;;;;6.58;99.02;101937.19;5057324;28;20056;-36
2022/02/02 08:32:13;;;;;;;35.85;6.88;;;;;;;6.62;98.99;101936.66;5057507;28;20321;-35
2022/02/02 08:34:47;;;;;;;33.92;6.82;;;;;;;6.63;98.89;101942.88;5056708;28;20029;-36
2022/02/02 08:37:13;;;;;;;23.40;5.95;;;;;;;6.63;98.84;101941.00;5056578;28;20108;-36
2022/02/02 08:40:00;;;;;;;32.38;5.88;;;;;;;6.55;99.20;101927.66;5056958;28;20036;-36
2022/02/02 08:42:27;;;;;;;27.73;5.45;;;;;;;6.67;98.86;101949.56;5056282;28;20124;-36
2022/02/02 08:45:13;;;;;;;27.45;7.18;;;;;;;6.66;99.63;101946.03;5056635;28;20385;-35
2022/02/02 08:47:37;;;;;;;39.47;8.68;;;;;;;6.69;99.15;101944.88;5056129;28;20048;-35
2022/02/02 08:50:04;;;;;;;36.30;7.60;;;;;;;6.77;99.21;101954.69;5057295;28;20037;-36
2022/02/02 08:52:34;;;;;;;26.73;6.57;;;;;;;6.83;98.81;101965.59;5056580;28;20021;-36
2022/02/02 08:55:05;;;;;;;32.13;6.82;;;;;;;6.89;99.62;101970.25;5056527;28;20032;-36
2022/02/02 08:57:47;;;;;;;30.27;7.03;;;;;;;6.93;98.86;101973.44;5056642;28;20025;-35
2022/02/02 09:00:21;;;;;;;25.40;5.53;;;;;;;6.98;99.05;101979.09;5056317;28;20041;-35
2022/02/02 09:05:17;;;;;;;29.45;6.20;;;;;;;7.01;98.54;101983.28;5056498;28;20022;-35
2022/02/02 09:05:31;;;;;;;24.60;5.70;;;;;;;7.01;98.55;101994.03;5055842;28;20033;-35
2022/02/02 09:07:57;;;;;;;25.53;6.13;;;;;;;7.02;98.64;101987.63;5056187;28;20028;-35
2022/02/02 09:19:59;;;;;;;29.63;5.57;;;;;;;6.97;98.94;101969.34;5056224;28;20021;-36
2022/02/02 09:24:24;;;;;;;31.27;6.97;;;;;;;7.37;98.05;101978.94;5053881;28;20049;-35
2022/02/02 09:34:50;;;;;;;21.60;5.45;;;;;;;7.61;96.63;101975.19;5053464;28;20064;-35
2022/02/02 09:37:17;;;;;;;32.10;5.88;;;;;;;7.77;96.49;101995.72;5053058;28;20090;-35
2022/02/02 09:39:48;;;;;;;29.23;6.32;;;;;;;7.77;95.80;101982.25;5053813;28;20116;-35
2022/02/02 09:42:18;;;;;;;22.40;4.75;;;;;;;7.80;96.17;101992.63;5037754;28;20441;-36
2022/02/02 09:44:44;;;;;;;37.38;5.95;;;;;;;7.72;96.42;101976.59;5053908;28;20033;-36
2022/02/02 09:47:21;;;;;;;28.58;6.28;;;;;;;7.81;96.15;101988.94;5053361;28;20163;-35
2022/02/02 09:52:40;;;;;;;20.33;4.80;;;;;;;7.86;96.28;101988.38;4994194;28;20490;-35
2022/02/02 09:55:16;;;;;;;24.90;5.45;;;;;;;7.85;96.00;101992.91;4993940;28;20074;-36
2022/02/02 09:58:05;;;;;;;24.92;5.15;;;;;;;7.92;96.28;102004.63;4994112;28;20479;-35
2022/02/02 10:00:43;;;;;;;24.02;5.60;;;;;;;7.97;95.75;102022.94;5009529;28;20482;-36
2022/02/02 10:06:28;;;;;;;29.10;6.40;;;;;;;8.06;95.75;102023.69;5013156;28;20034;-36
2022/02/02 10:09:20;;;;;;;21.25;4.55;;;;;;;8.07;95.59;102023.50;5013319;28;20040;-35
2022/02/02 10:11:54;;;;;;;24.00;5.50;;;;;;;8.04;95.59;102012.25;5013072;28;20036;-35
2022/02/02 10:14:27;;;;;;;23.75;5.18;;;;;;;8.15;95.93;102038.72;5013114;28;20481;-36
2022/02/02 10:16:54;;;;;;;24.95;5.82;;;;;;;8.16;95.93;102043.09;5013419;28;20049;-35
2022/02/02 10:19:20;;;;;;;;;;;;;;;8.22;95.52;102047.75;5013295;28;20117;-35
2022/02/02 10:21:45;;;;;;;20.85;4.72;;;;;;;8.19;94.85;102050.78;5013166;28;20259;-36
2022/02/02 10:24:11;;;;;;;19.48;5.50;;;;;;;8.20;94.65;102061.41;5013005;28;20046;-36
2022/02/02 10:26:48;;;;;;;20.42;5.65;;;;;;;8.25;94.85;102060.84;5012786;28;20072;-36
2022/02/02 10:29:15;;;;;;;21.05;5.07;;;;;;;8.27;94.92;102062.31;5027928;28;20057;-36
2022/02/02 10:31:44;;;;;;;19.45;5.32;;;;;;;8.27;94.79;102053.41;5055149;28;20520;-36
2022/02/02 10:34:20;;;;;;;24.58;5.43;;;;;;;8.38;94.42;102057.53;5054290;28;20044;-36
2022/02/02 10:37:19;;;;;;;24.85;5.63;;;;;;;8.41;93.79;102065.25;5055430;28;20070;-36
2022/02/02 10:39:47;;;;;;;19.05;4.63;;;;;;;8.40;93.93;102075.19;5054563;28;20043;-36
2022/02/02 10:42:12;;;;;;;26.52;5.28;;;;;;;8.44;94.88;102078.31;5055015;28;20083;-36
2022/02/02 10:44:45;;;;;;;26.80;5.80;;;;;;;8.45;94.36;102075.47;5055061;28;20030;-36
2022/02/02 10:47:29;;;;;;;20.52;4.88;;;;;;;8.47;94.01;102084.19;5054175;28;20450;-36
2022/02/02 10:50:29;;;;;;;23.40;5.00;;;;;;;8.49;94.73;102087.56;5054886;28;20102;-35
2022/02/02 10:56:18;;;;;;;20.92;5.05;;;;;;;8.55;93.18;102098.59;5051960;28;20541;-36
2022/02/02 11:01:35;;;;;;;19.50;6.00;;;;;;;8.62;93.29;102097.66;5052172;28;20037;-35
2022/02/02 11:06:45;;;;;;;17.33;4.72;;;;;;;8.65;93.37;102081.13;5052471;28;20048;-35
2022/02/02 11:09:13;;;;;;;19.48;4.70;;;;;;;8.82;92.36;102092.50;5052314;28;20037;-35
2022/02/02 11:11:43;;;;;;;23.80;5.57;;;;;;;8.88;91.61;102091.78;5051811;28;20499;-35
2022/02/02 11:14:45;;;;;;;28.05;6.05;;;;;;;8.94;91.79;102084.78;5051992;28;20202;-35
2022/02/02 11:17:25;;;;;;;18.85;5.30;;;;;;;8.95;91.27;102081.88;4992795;28;20042;-35
2022/02/02 11:19:54;;;;;;;24.75;5.22;;;;;;;8.96;89.88;102072.75;4992116;28;20137;-35
2022/02/02 11:22:32;;;;;;;19.48;4.75;;;;;;;9.02;90.51;102076.56;4992464;28;20038;-35
2022/02/02 11:25:04;;;;;;;17.42;4.72;;;;;;;9.03;90.53;102078.25;4992498;28;20030;-35
2022/02/02 11:27:38;;;;;;;18.83;5.20;;;;;;;9.10;88.34;102083.72;4992111;28;20046;-35
2022/02/02 11:30:22;;;;;;;15.82;4.20;;;;;;;9.12;87.57;102078.94;4992176;28;20041;-35
2022/02/02 11:32:52;;;;;;;20.33;4.97;;;;;;;9.29;87.26;102097.41;4983342;28;20035;-35
2022/02/02 11:35:38;;;;;;;19.60;5.20;;;;;;;9.31;87.54;102096.38;4972522;28;20538;-35
2022/02/02 11:38:07;;;;;;;22.75;4.78;;;;;;;9.34;86.43;102094.13;4972781;28;20440;-35
2022/02/02 11:40:41;;;;;;;28.50;5.40;;;;;;;9.31;86.51;102093.69;4973069;28;20126;-35
2022/02/02 11:45:37;;;;;;;22.58;5.55;;;;;;;9.29;87.07;102093.88;4972366;28;20117;-35
2022/02/02 11:48:17;;;;;;;22.83;5.40;;;;;;;9.25;85.77;102082.63;4972715;28;20090;-35
2022/02/02 11:50:56;;;;;;;24.08;6.43;;;;;;;9.16;85.72;102072.97;4972721;28;20034;-35
2022/02/02 11:53:58;;;;;;;19.42;5.32;;;;;;;9.19;85.66;102093.38;4993515;28;20057;-35
2022/02/02 11:56:28;;;;;;;20.08;5.05;;;;;;;9.15;84.47;102097.47;5011424;28;20025;-35
2022/02/02 11:58:54;;;;;;;20.77;5.18;;;;;;;9.10;86.22;102072.91;5011267;28;20108;-35
2022/02/02 12:01:41;;;;;;;23.98;5.47;;;;;;;9.28;86.27;102086.81;5011906;28;20065;-35
2022/02/02 12:04:38;;;;;;;25.95;5.32;;;;;;;9.28;84.53;102094.91;5011484;28;20049;-35
2022/02/02 12:07:09;;;;;;;21.88;4.75;;;;;;;9.26;84.07;102087.00;5011285;28;20549;-35
2022/02/02 12:09:54;;;;;;;19.45;5.00;;;;;;;9.29;83.65;102088.47;5010982;28;20053;-35
2022/02/02 12:48:06;;;;;;;18.15;4.70;;;;;;;9.13;82.61;102061.75;5010735;28;20057;-36
2022/02/02 12:58:33;;;;;;;23.85;5.38;;;;;;;9.48;81.90;102063.53;5010524;28;20093;-36
2022/02/02 13:01:09;;;;;;;16.35;5.25;;;;;;;9.60;82.58;102057.59;5011723;28;20084;-36
2022/02/02 13:03:39;;;;;;;20.20;4.93;;;;;;;9.61;82.44;102051.16;5015012;28;20390;-36
2022/02/02 13:06:11;;;;;;;24.80;5.00;;;;;;;9.72;82.41;102047.97;5014604;28;20092;-36
2022/02/02 13:08:37;;;;;;;19.48;4.85;;;;;;;9.75;81.28;102034.88;5025536;28;20068;-36
2022/02/02 13:11:02;;;;;;;16.75;4.63;;;;;;;9.83;80.39;102049.28;5034182;28;20068;-35
2022/02/02 13:13:29;;;;;;;16.20;4.20;;;;;;;9.82;80.78;102032.25;5033883;28;20044;-35
2022/02/02 13:16:25;;;;;;;19.38;5.68;;;;;;;9.95;81.13;102048.50;5034418;28;20681;-35
2022/02/02 13:18:54;;;;;;;18.05;4.28;;;;;;;9.87;80.10;102037.06;5033873;28;20459;-35
2022/02/02 13:21:28;;;;;;;18.65;4.53;;;;;;;9.90;79.69;102056.38;5033633;28;20560;-35
2022/02/02 13:27:04;;;;;;;17.95;4.45;;;;;;;9.71;79.90;102067.88;5056460;28;20076;-35
2022/02/02 13:35:00;;;;;;;22.38;5.22;;;;;;;9.63;81.19;102073.44;5056175;28;20037;-36
2022/02/02 13:56:58;;;;;;;17.08;4.28;;;;;;;9.63;80.60;102081.53;5055399;28;20470;-36
2022/02/02 14:01:55;;;;;;;19.55;5.00;;;;;;;9.67;81.34;102085.53;5055487;28;20094;-35
2022/02/02 14:04:47;;;;;;;21.88;5.68;;;;;;;9.65;81.38;102092.97;5055440;28;20071;-35
2022/02/02 14:32:00;;;;;;;12.43;3.95;;;;;;;9.17;84.35;102115.13;5052622;28;20417;-35
2022/02/02 14:34:25;;;;;;;21.60;4.32;;;;;;;9.17;85.26;102111.59;5052343;28;20036;-35
2022/02/02 14:36:52;;;;;;;23.33;4.47;;;;;;;9.18;85.65;102118.69;5035391;28;20075;-35
2022/02/02 14:39:26;;;;;;;15.82;3.95;;;;;;;9.17;85.41;102117.00;5052200;28;20053;-35
2022/02/02 14:42:10;;;;;;;26.73;5.77;;;;;;;9.18;85.16;102113.28;5052590;28;20045;-36
2022/02/02 14:44:39;;;;;;;16.45;4.30;;;;;;;9.21;85.41;102123.69;5052722;28;20055;-35
2022/02/02 14:47:09;;;;;;;16.23;3.97;;;;;;;9.23;85.43;102122.47;5053528;28;20045;-35
2022/02/02 14:52:35;;;;;;;16.48;3.50;;;;;;;9.20;85.73;102127.41;5053265;28;20048;-35
2022/02/02 15:27:34;;;;;;;10.60;4.35;;;;;;;9.09;90.00;102139.53;5054429;28;20103;-36
2022/02/02 15:32:47;;;;;;;13.70;4.53;;;;;;;9.11;90.66;102137.47;5052554;28;20114;-36
2022/02/02 15:35:13;;;;;;;17.92;5.82;;;;;;;9.07;90.88;102136.19;5052650;28;20037;-36
2022/02/02 15:37:55;;;;;;;17.33;6.30;;;;;;;9.10;90.55;102137.69;5051935;28;20123;-36
2022/02/02 15:40:26;;;;;;;13.48;5.18;;;;;;;9.07;91.28;102124.56;5053622;28;20044;-36
2022/02/02 15:43:03;;;;;;;13.88;4.75;;;;;;;9.07;91.61;102135.34;5052054;28;20072;-36
2022/02/02 15:54:44;;;;;;;19.65;4.93;;;;;;;9.03;91.82;102133.03;5053577;28;20044;-36
2022/02/02 15:59:05;;;;;;;17.52;4.50;;;;;;;8.84;92.09;102117.44;5053222;28;20488;-36
2022/02/02 16:02:17;;;;;;;13.25;3.85;;;;;;;8.82;92.56;102119.47;5053062;28;20219;-36
2022/02/02 16:04:23;;;;;;;10.38;3.65;;;;;;;8.79;92.55;102121.75;5052524;28;20052;-36
2022/02/02 16:06:50;;;;;;;12.45;3.67;;;;;;;8.67;92.49;102115.97;5053343;28;20047;-36
2022/02/02 16:09:28;;;;;;;18.15;4.60;;;;;;;8.72;93.03;102124.34;5053243;28;20029;-36
2022/02/02 16:12:07;;;;;;;15.88;4.20;;;;;;;8.68;93.06;102126.56;5052702;28;20075;-36
2022/02/02 16:14:40;;;;;;;12.30;3.55;;;;;;;8.67;93.11;102118.66;5053873;28;20361;-36
2022/02/02 16:31:32;;;;;;;8.48;3.80;;;;;;;8.45;94.49;102110.50;5051218;28;20548;-35
2022/02/02 16:36:51;;;;;;;8.15;4.13;;;;;;;8.37;95.48;102126.75;5052253;28;20036;-36
2022/02/02 16:39:23;;;;;;;11.40;4.50;;;;;;;8.36;96.23;102126.94;5054747;28;20045;-36
2022/02/02 16:44:33;;;;;;;11.95;4.30;;;;;;;8.26;96.73;102119.94;5055296;28;20064;-37
2022/02/02 16:46:58;;;;;;;12.73;5.23;;;;;;;8.30;96.85;102123.13;5054771;28;20417;-37
2022/02/02 16:49:24;;;;;;;6.60;3.83;;;;;;;8.29;97.70;102124.13;5054677;28;20127;-36
2022/02/02 16:51:50;;;;;;;12.48;4.70;;;;;;;8.27;97.00;102120.78;5054314;28;20504;-36
2022/02/02 16:54:30;;;;;;;13.65;4.50;;;;;;;8.24;97.76;102123.84;5054318;28;20029;-36
2022/02/02 17:30:30;;;;;;;8.43;5.15;;;;;;;7.84;100.00;102115.13;5034365;28;20262;-35
2022/02/02 17:33:06;;;;;;;7.47;4.35;;;;;;;7.92;100.00;102141.16;5031590;28;20029;-35
2022/02/02 17:41:03;;;;;;;10.95;4.75;;;;;;;7.93;100.00;102145.53;5033779;28;20038;-35
2022/02/02 17:56:02;;;;;;;9.70;4.97;;;;;;;7.94;100.00;102139.13;5033565;28;20045;-36
2022/02/02 18:18:54;;;;;;;7.18;5.18;;;;;;;7.94;100.00;102155.28;4974137;28;20046;-35
2022/02/02 18:21:22;;;;;;;9.45;5.25;;;;;;;7.88;100.00;102147.94;4973871;28;20097;-35
2022/02/02 18:37:02;;;;;;;6.95;4.70;;;;;;;8.04;100.00;102155.03;4916196;29;20040;-35
2022/02/02 20:06:40;;;;;;;31.08;20.77;;;;;;;8.11;100.00;102155.97;5050702;28;20037;-35
2022/02/02 20:08:47;;;;;;;32.08;21.33;;;;;;;8.14;100.00;102159.13;5040415;28;20040;-35
2022/02/02 20:11:21;;;;;;;31.85;22.33;;;;;;;8.05;100.00;102144.06;5050105;28;20202;-35
2022/02/02 20:13:46;;;;;;;31.90;21.98;;;;;;;8.14;100.00;102151.03;5050992;28;20190;-35
2022/02/02 20:16:12;;;;;;;31.10;21.63;;;;;;;8.14;100.00;102145.66;5050506;28;20533;-35
2022/02/02 20:18:41;;;;;;;32.97;22.58;;;;;;;8.13;100.00;102143.97;5050513;28;20166;-35
2022/02/02 20:21:09;;;;;;;31.20;22.15;;;;;;;8.15;100.00;102133.88;5050696;28;20044;-35
2022/02/02 20:23:43;;;;;;;32.38;22.98;;;;;;;8.12;100.00;102136.94;5050418;28;20540;-35
2022/02/02 20:26:11;;;;;;;31.67;21.98;;;;;;;8.16;100.00;102142.78;5050299;28;20079;-35
2022/02/02 20:28:36;;;;;;;31.45;22.55;;;;;;;8.15;100.00;102135.72;5050398;28;20041;-35
2022/02/02 20:31:02;;;;;;;31.37;23.17;;;;;;;8.15;100.00;102141.09;5050811;28;20037;-35
2022/02/02 20:33:28;;;;;;;32.07;23.50;;;;;;;8.16;100.00;102145.50;5050275;28;20037;-35
2022/02/02 20:35:54;;;;;;;29.67;21.83;;;;;;;8.14;100.00;102144.81;5052627;28;20072;-35
2022/02/02 20:38:19;;;;;;;31.65;22.38;;;;;;;8.17;100.00;102147.16;5053177;28;20080;-35
2022/02/02 20:40:45;;;;;;;30.25;22.75;;;;;;;8.14;100.00;102144.81;5052850;28;20052;-35
2022/02/02 20:43:14;;;;;;;30.25;22.15;;;;;;;8.17;100.00;102161.47;5052694;28;20082;-35
2022/02/02 21:05:08;;;;;;;33.03;24.77;;;;;;;8.12;100.00;102146.88;5052141;28;20105;-35
2022/02/02 21:10:12;;;;;;;33.28;24.75;;;;;;;8.14;100.00;102142.13;5052175;28;20037;-36
2022/02/02 21:15:29;;;;;;;32.25;23.98;;;;;;;8.14;100.00;102136.75;5052098;28;20039;-36
2022/02/02 21:17:58;;;;;;;37.10;24.27;;;;;;;8.13;100.00;102140.47;5052764;28;20055;-36
2022/02/02 21:20:32;;;;;;;32.42;23.05;;;;;;;8.13;100.00;102133.22;5051150;28;20473;-35
2022/02/02 21:23:03;;;;;;;33.40;23.52;;;;;;;8.12;100.00;102139.63;5054044;28;20031;-35
2022/02/02 21:25:40;;;;;;;34.58;23.48;;;;;;;8.07;100.00;102142.03;5056043;28;20033;-35
2022/02/02 21:28:07;;;;;;;32.55;23.95;;;;;;;8.08;100.00;102150.94;5055836;28;20021;-35
2022/02/02 21:30:35;;;;;;;32.67;24.77;;;;;;;8.08;100.00;102159.88;5055036;28;20025;-36
2022/02/02 21:33:00;;;;;;;36.88;25.45;;;;;;;8.07;100.00;102162.75;5056032;28;20063;-37
2022/02/02 21:35:26;;;;;;;35.13;24.38;;;;;;;8.06;100.00;102171.84;5055375;28;20064;-36
2022/02/02 21:38:00;;;;;;;34.95;24.38;;;;;;;8.05;100.00;102168.31;5055197;28;20029;-36
2022/02/02 21:40:27;;;;;;;32.45;23.40;;;;;;;8.05;100.00;102164.78;5055424;28;20056;-35
2022/02/02 21:42:57;;;;;;;31.02;24.52;;;;;;;8.03;100.00;102164.97;5054227;28;20095;-36
2022/02/02 21:45:24;;;;;;;38.10;27.55;;;;;;;7.97;100.00;102152.22;5056154;28;20112;-36
2022/02/02 21:47:50;;;;;;;37.28;27.23;;;;;;;7.89;100.00;102139.66;5055352;28;20059;-38
2022/02/02 21:50:18;;;;;;;40.17;28.83;;;;;;;8.05;100.00;102164.78;5055604;28;20470;-36
2022/02/02 21:52:46;;;;;;;40.80;29.38;;;;;;;8.04;100.00;102163.09;5055718;28;20025;-36
2022/02/02 21:55:13;;;;;;;38.75;29.35;;;;;;;7.91;100.00;102121.47;5055102;28;20047;-36
2022/02/02 21:57:38;;;;;;;;;;;;;;;8.08;100.00;102153.63;5055556;28;20040;-36
2022/02/02 22:00:06;;;;;;;40.28;30.27;;;;;;;8.04;100.00;102146.94;5055193;28;19917;-36
2022/02/02 22:02:34;;;;;;;38.45;29.98;;;;;;;8.04;100.00;102138.84;5054900;28;20414;-36
2022/02/02 22:05:00;;;;;;;40.88;30.27;;;;;;;8.04;100.00;102141.56;5054971;28;20114;-37
2022/02/02 22:07:27;;;;;;;38.22;30.27;;;;;;;8.03;100.00;102139.88;5054611;28;20049;-35
2022/02/02 22:09:56;;;;;;;40.63;30.40;;;;;;;8.03;100.00;102134.50;5054997;28;20029;-35
2022/02/02 22:12:22;;;;;;;43.30;31.70;;;;;;;8.03;100.00;102134.50;5055085;28;20025;-35
2022/02/02 22:14:50;;;;;;;37.50;30.30;;;;;;;8.00;100.00;102133.84;5055062;28;20033;-35
2022/02/02 22:17:16;;;;;;;37.88;29.58;;;;;;;7.98;100.00;102135.03;5055063;28;20029;-35
2022/02/02 22:19:42;;;;;;;;;;;;;;;8.06;100.00;102144.91;5055324;28;20029;-35
2022/02/02 22:22:07;;;;;;;33.28;26.23;;;;;;;8.02;100.00;102140.91;5054740;28;19962;-35
2022/02/02 22:24:36;;;;;;;33.90;26.90;;;;;;;8.02;100.00;102132.81;5054800;28;20431;-36